Time;durP1;ratioP1;P1;durP2;ratioP2;P2;SDS_P1;SDS_P2;PMS_P1;PMS_P2;Temp;Humidity;BMP_temperature;BMP_pressure;BME280_temperature;BME280_humidity;BME280_pressure;Samples;Min_cycle;Max_cycle;Signal;HPM_P1;HPM_P2
2022/07/26 00:02:02;;;;;;;0.50;0.50;;;25.20;99.90;;;;;;5014853;28;20233;-63
2022/07/26 00:04:29;;;;;;;0.63;0.60;;;25.20;99.90;;;;;;5009997;28;20610;-63
2022/07/26 00:06:56;;;;;;;0.50;0.50;;;25.10;99.90;;;;;;5016827;28;20241;-63
2022/07/26 00:09:23;;;;;;;1.73;0.75;;;25.00;99.90;;;;;;5035953;28;20203;-63
2022/07/26 00:11:50;;;;;;;1.08;0.63;;;25.00;99.90;;;;;;5035079;28;20229;-62
2022/07/26 00:14:17;;;;;;;0.70;0.70;;;24.90;99.90;;;;;;5031275;28;20635;-63
2022/07/26 00:16:45;;;;;;;0.50;0.50;;;24.80;99.90;;;;;;5038303;28;20200;-64
2022/07/26 00:19:12;;;;;;;0.52;0.52;;;24.80;99.90;;;;;;5041394;28;20318;-64
2022/07/26 00:24:08;;;;;;;0.60;0.60;;;24.80;99.90;;;;;;5053423;22;20240;-61
2022/07/26 00:26:34;;;;;;;0.60;0.60;;;24.80;99.90;;;;;;5028385;28;20204;-61
2022/07/26 00:29:03;;;;;;;0.50;0.50;;;24.80;99.90;;;;;;5033716;28;20307;-61
2022/07/26 00:31:30;;;;;;;0.50;0.50;;;24.80;99.90;;;;;;5035092;28;20204;-60
2022/07/26 00:33:58;;;;;;;0.73;0.40;;;24.80;99.90;;;;;;5012661;28;20256;-60
2022/07/26 00:36:26;;;;;;;0.70;0.70;;;24.80;99.90;;;;;;5015064;28;20288;-60
2022/07/26 00:38:53;;;;;;;0.65;0.60;;;24.80;99.90;;;;;;5015981;28;20267;-62
2022/07/26 00:41:20;;;;;;;0.50;0.50;;;24.80;99.90;;;;;;5018489;28;20284;-60
2022/07/26 00:43:57;;;;;;;0.93;0.60;;;24.80;99.90;;;;;;5012150;28;20221;-60
2022/07/26 00:46:24;;;;;;;0.55;0.55;;;24.70;99.90;;;;;;5014786;28;20215;-60
2022/07/26 00:48:51;;;;;;;0.63;0.50;;;24.80;99.90;;;;;;5014689;28;20648;-61
2022/07/26 00:51:20;;;;;;;0.50;0.50;;;24.90;99.90;;;;;;5006954;28;20209;-60
2022/07/26 00:53:48;;;;;;;0.40;0.40;;;25.00;99.90;;;;;;5012902;28;20218;-62
2022/07/26 00:56:16;;;;;;;1.05;0.52;;;24.90;99.90;;;;;;5029992;28;20218;-61
2022/07/26 00:58:43;;;;;;;0.40;0.40;;;24.90;99.90;;;;;;5020375;28;20201;-61
2022/07/26 01:01:10;;;;;;;0.50;0.50;;;24.90;99.90;;;;;;5016324;28;20233;-63
2022/07/26 01:03:37;;;;;;;0.40;0.40;;;24.90;99.90;;;;;;5010984;28;20296;-62
2022/07/26 01:06:05;;;;;;;0.45;0.45;;;24.80;99.90;;;;;;5010394;28;20295;-61
2022/07/26 01:08:34;;;;;;;0.60;0.60;;;24.80;99.90;;;;;;5015725;28;20240;-62
2022/07/26 01:11:01;;;;;;;0.50;0.50;;;24.80;99.90;;;;;;5014943;28;20237;-61
2022/07/26 01:13:28;;;;;;;0.40;0.40;;;24.80;99.90;;;;;;5017951;28;20308;-59
2022/07/26 01:15:54;;;;;;;0.63;0.63;;;24.70;99.90;;;;;;5013930;28;20296;-61
2022/07/26 01:18:21;;;;;;;0.52;0.52;;;24.80;99.90;;;;;;5012290;28;20206;-61
2022/07/26 01:20:50;;;;;;;0.60;0.60;;;24.70;99.90;;;;;;5013213;28;20207;-60
2022/07/26 01:23:18;;;;;;;0.43;0.43;;;24.80;99.90;;;;;;5013337;28;20221;-61
2022/07/26 01:25:45;;;;;;;0.50;0.50;;;24.80;99.90;;;;;;5012183;28;20229;-61
2022/07/26 01:28:12;;;;;;;0.57;0.57;;;24.80;99.90;;;;;;5010667;28;20228;-61
2022/07/26 01:30:38;;;;;;;0.40;0.40;;;24.80;99.90;;;;;;5007498;28;20212;-60
2022/07/26 01:33:05;;;;;;;0.50;0.50;;;24.70;99.90;;;;;;5010238;28;20324;-60
2022/07/26 01:35:32;;;;;;;0.40;0.40;;;24.80;99.90;;;;;;5012086;28;20208;-60
2022/07/26 01:37:59;;;;;;;0.38;0.38;;;24.70;99.90;;;;;;5009891;28;20776;-61
2022/07/26 01:40:28;;;;;;;0.60;0.60;;;24.70;99.90;;;;;;5010658;28;20319;-61
2022/07/26 01:42:54;;;;;;;0.63;0.63;;;24.70;99.90;;;;;;5011265;28;20295;-60
2022/07/26 01:45:21;;;;;;;0.40;0.40;;;24.70;99.90;;;;;;5009160;28;20747;-62
2022/07/26 01:47:49;;;;;;;0.57;0.57;;;24.70;99.90;;;;;;5007673;28;20280;-62
2022/07/26 01:50:17;;;;;;;0.70;0.70;;;24.70;99.90;;;;;;5011266;28;20202;-62
2022/07/26 01:52:44;;;;;;;0.65;0.60;;;24.70;99.90;;;;;;5008775;28;20641;-62
2022/07/26 01:55:11;;;;;;;0.60;0.60;;;24.60;99.90;;;;;;5012961;28;20235;-62
2022/07/26 01:57:39;;;;;;;0.38;0.38;;;24.60;99.90;;;;;;5009002;28;20208;-60
2022/07/26 02:00:08;;;;;;;0.70;0.70;;;24.60;99.90;;;;;;5011589;28;20308;-62
2022/07/26 02:02:35;;;;;;;0.80;0.80;;;24.60;99.90;;;;;;5010672;28;20225;-62
2022/07/26 02:05:02;;;;;;;0.60;0.60;;;24.60;99.90;;;;;;5009452;28;20314;-62
2022/07/26 02:07:30;;;;;;;2.50;0.70;;;24.60;99.90;;;;;;5011355;28;20668;-60
2022/07/26 02:09:58;;;;;;;0.85;0.77;;;24.60;99.90;;;;;;5007400;28;20335;-60
2022/07/26 02:12:25;;;;;;;0.55;0.55;;;24.60;99.90;;;;;;5010590;28;20229;-60
2022/07/26 02:14:53;;;;;;;0.60;0.60;;;24.60;99.90;;;;;;5007404;28;20312;-61
2022/07/26 02:17:20;;;;;;;0.50;0.50;;;24.50;99.90;;;;;;5010387;28;20292;-61
2022/07/26 02:19:47;;;;;;;0.70;0.70;;;24.50;99.90;;;;;;5009577;28;20671;-60
2022/07/26 02:22:14;;;;;;;0.70;0.70;;;24.50;99.90;;;;;;5003797;28;20236;-62
2022/07/26 02:24:41;;;;;;;0.47;0.47;;;24.50;99.90;;;;;;5011671;28;20198;-62
2022/07/26 02:27:08;;;;;;;0.70;0.70;;;24.30;99.90;;;;;;5009868;28;20232;-61
2022/07/26 02:29:35;;;;;;;0.50;0.50;;;24.40;99.90;;;;;;5011800;28;20205;-61
2022/07/26 02:32:05;;;;;;;0.50;0.50;;;24.40;99.90;;;;;;5007933;28;20217;-62
2022/07/26 02:34:32;;;;;;;0.60;0.60;;;24.40;99.90;;;;;;5010124;28;20789;-61
2022/07/26 02:36:59;;;;;;;0.50;0.50;;;24.40;99.90;;;;;;5013086;28;20292;-62
2022/07/26 02:39:27;;;;;;;0.43;0.43;;;24.50;99.90;;;;;;5011370;28;20292;-62
2022/07/26 02:41:54;;;;;;;0.77;0.70;;;24.50;99.90;;;;;;5005773;28;20205;-60
2022/07/26 02:44:21;;;;;;;0.45;0.45;;;24.50;99.90;;;;;;5008877;28;20659;-61
2022/07/26 02:46:48;;;;;;;0.60;0.60;;;24.40;99.90;;;;;;5008811;28;20204;-61
2022/07/26 02:49:17;;;;;;;0.70;0.70;;;24.20;99.90;;;;;;5009342;28;20205;-62
2022/07/26 02:51:44;;;;;;;0.68;0.68;;;24.20;99.90;;;;;;5010940;28;20641;-60
2022/07/26 02:54:11;;;;;;;0.60;0.60;;;24.10;99.90;;;;;;5009579;28;20964;-62
2022/07/26 02:56:38;;;;;;;0.55;0.55;;;24.10;99.90;;;;;;5009697;28;20292;-62
2022/07/26 02:59:05;;;;;;;0.50;0.50;;;24.20;99.90;;;;;;5008468;28;20322;-60
2022/07/26 03:01:34;;;;;;;1.02;0.52;;;24.10;99.90;;;;;;5008431;28;20201;-60
2022/07/26 03:04:00;;;;;;;0.50;0.50;;;24.10;99.90;;;;;;5006013;28;20644;-60
2022/07/26 03:06:29;;;;;;;0.60;0.60;;;24.10;99.90;;;;;;5008248;28;20292;-61
2022/07/26 03:08:56;;;;;;;0.63;0.63;;;24.00;99.90;;;;;;5006743;28;20300;-60
2022/07/26 03:11:22;;;;;;;0.60;0.60;;;23.90;99.90;;;;;;5008136;28;20290;-62
2022/07/26 03:13:49;;;;;;;0.60;0.60;;;23.80;99.90;;;;;;5007487;28;20682;-61
2022/07/26 03:16:16;;;;;;;0.70;0.70;;;23.80;99.90;;;;;;5011742;28;20718;-62
2022/07/26 03:18:43;;;;;;;0.50;0.50;;;23.80;99.90;;;;;;5009339;28;20292;-62
2022/07/26 03:21:10;;;;;;;0.63;0.63;;;23.70;99.90;;;;;;5009037;28;20210;-60
2022/07/26 03:23:39;;;;;;;0.60;0.60;;;23.70;99.90;;;;;;5010657;28;20237;-60
2022/07/26 03:26:06;;;;;;;0.55;0.55;;;23.50;99.90;;;;;;5006527;28;20684;-60
2022/07/26 03:28:33;;;;;;;0.70;0.70;;;23.40;99.90;;;;;;5007834;28;20201;-60
2022/07/26 03:31:00;;;;;;;0.50;0.50;;;23.20;99.90;;;;;;5006971;28;20241;-60
2022/07/26 03:33:28;;;;;;;0.80;0.80;;;23.20;99.90;;;;;;5010428;28;20689;-59
2022/07/26 03:35:54;;;;;;;0.70;0.70;;;23.10;99.90;;;;;;5008085;28;20209;-59
2022/07/26 03:38:21;;;;;;;0.60;0.60;;;23.00;99.90;;;;;;5011263;28;20224;-62
2022/07/26 03:40:50;;;;;;;0.80;0.80;;;22.80;99.90;;;;;;5009050;28;20206;-60
2022/07/26 03:43:18;;;;;;;0.85;0.60;;;22.80;99.90;;;;;;5007850;28;20256;-60
2022/07/26 03:45:45;;;;;;;0.60;0.60;;;22.80;99.90;;;;;;5011677;28;20215;-61
2022/07/26 03:48:12;;;;;;;0.70;0.70;;;22.90;99.90;;;;;;5010878;28;20371;-61
2022/07/26 03:50:38;;;;;;;0.70;0.70;;;23.00;99.90;;;;;;5009165;28;20288;-61
2022/07/26 03:53:05;;;;;;;0.80;0.80;;;23.00;99.90;;;;;;5011233;28;20293;-61
2022/07/26 03:58:18;;;;;;;0.70;0.70;;;23.10;99.90;;;;;;5018610;28;20260;-61
2022/07/26 04:00:46;;;;;;;0.88;0.88;;;23.10;99.90;;;;;;5028062;28;20205;-60
2022/07/26 04:03:13;;;;;;;0.70;0.70;;;23.00;99.90;;;;;;5029117;28;20216;-61
2022/07/26 04:05:39;;;;;;;1.00;1.00;;;23.10;99.90;;;;;;5016678;28;20233;-61
2022/07/26 04:08:06;;;;;;;1.35;0.85;;;23.10;99.90;;;;;;5012898;28;20205;-62
2022/07/26 04:10:33;;;;;;;0.93;0.93;;;23.20;99.90;;;;;;5012529;28;20213;-61
2022/07/26 04:13:00;;;;;;;0.70;0.70;;;23.20;99.90;;;;;;5012744;28;20597;-62
2022/07/26 04:15:28;;;;;;;0.70;0.70;;;23.20;99.90;;;;;;5008374;28;20313;-62
2022/07/26 04:17:55;;;;;;;0.73;0.73;;;23.10;99.90;;;;;;5010675;28;20304;-62
2022/07/26 04:20:22;;;;;;;0.93;0.85;;;23.20;99.90;;;;;;5005992;28;20313;-60
2022/07/26 04:22:49;;;;;;;0.70;0.70;;;23.20;99.90;;;;;;5008728;28;20264;-60
2022/07/26 04:25:16;;;;;;;0.60;0.60;;;23.20;99.90;;;;;;5011370;28;20284;-61
2022/07/26 04:27:42;;;;;;;0.80;0.80;;;23.00;99.90;;;;;;5006487;28;20213;-60
2022/07/26 04:30:10;;;;;;;0.70;0.70;;;22.80;99.90;;;;;;5011137;28;20222;-60
2022/07/26 04:32:39;;;;;;;0.60;0.60;;;22.60;99.90;;;;;;5008928;28;20218;-63
2022/07/26 04:35:06;;;;;;;0.80;0.80;;;22.70;99.90;;;;;;5013781;28;20257;-61
2022/07/26 04:37:39;;;;;;;0.80;0.80;;;22.90;99.90;;;;;;5010233;28;20288;-60
2022/07/26 04:40:07;;;;;;;0.77;0.77;;;23.00;99.90;;;;;;5008608;28;20319;-61
2022/07/26 04:42:34;;;;;;;0.70;0.70;;;23.00;99.90;;;;;;5010253;28;20316;-62
2022/07/26 04:45:01;;;;;;;0.60;0.60;;;22.90;99.90;;;;;;5010214;28;20284;-61
2022/07/26 04:47:28;;;;;;;1.65;0.88;;;22.80;99.90;;;;;;5007865;28;20288;-60
2022/07/26 04:49:56;;;;;;;1.20;0.80;;;22.80;99.90;;;;;;5002715;28;20223;-62
2022/07/26 04:52:23;;;;;;;0.82;0.73;;;22.90;99.90;;;;;;5013591;28;20236;-61
2022/07/26 04:54:50;;;;;;;1.80;0.80;;;23.00;99.90;;;;;;5018142;28;20237;-61
2022/07/26 04:57:17;;;;;;;0.90;0.85;;;23.10;99.90;;;;;;5018404;28;20292;-61
2022/07/26 04:59:45;;;;;;;1.02;1.00;;;23.20;99.90;;;;;;5012499;28;20695;-63
2022/07/26 05:02:13;;;;;;;1.33;0.80;;;23.30;99.90;;;;;;5008778;28;20221;-62
2022/07/26 05:04:40;;;;;;;1.45;0.80;;;23.40;99.90;;;;;;5013130;28;20268;-61
2022/07/26 05:07:09;;;;;;;0.75;0.75;;;23.40;99.90;;;;;;5004886;28;20240;-62
2022/07/26 05:09:36;;;;;;;0.60;0.60;;;23.30;99.90;;;;;;5012248;28;20201;-61
2022/07/26 05:12:04;;;;;;;0.85;0.70;;;23.20;99.90;;;;;;5008118;28;20293;-62
2022/07/26 05:14:30;;;;;;;0.65;0.65;;;23.00;99.90;;;;;;5010631;28;20282;-61
2022/07/26 05:16:57;;;;;;;0.77;0.77;;;23.00;99.90;;;;;;5010876;28;20671;-60
2022/07/26 05:19:24;;;;;;;0.80;0.80;;;22.90;99.90;;;;;;5010302;28;20222;-60
2022/07/26 05:21:51;;;;;;;0.98;0.82;;;22.80;99.90;;;;;;5009593;28;20201;-62
2022/07/26 05:24:19;;;;;;;0.70;0.70;;;22.80;99.90;;;;;;5012132;28;20269;-60
2022/07/26 05:26:46;;;;;;;0.70;0.70;;;22.70;99.90;;;;;;5005747;28;20292;-61
2022/07/26 05:29:13;;;;;;;0.70;0.70;;;22.70;99.90;;;;;;5011052;28;20613;-61
2022/07/26 05:31:40;;;;;;;0.57;0.57;;;22.60;99.90;;;;;;5009876;28;20296;-62
2022/07/26 05:34:07;;;;;;;0.80;0.80;;;22.60;99.90;;;;;;5009474;28;20316;-62
2022/07/26 05:36:34;;;;;;;1.10;0.93;;;22.50;99.90;;;;;;5003318;28;20205;-63
2022/07/26 05:39:02;;;;;;;1.42;1.00;;;22.60;99.90;;;;;;5010067;28;20209;-65
2022/07/26 05:41:30;;;;;;;0.90;0.90;;;22.70;99.90;;;;;;5012343;28;20229;-65
2022/07/26 05:43:57;;;;;;;0.70;0.70;;;22.60;99.90;;;;;;5010231;28;20328;-65
2022/07/26 05:46:24;;;;;;;1.02;0.80;;;22.70;99.90;;;;;;5007762;28;20201;-65
2022/07/26 05:48:51;;;;;;;0.95;0.90;;;22.50;99.90;;;;;;5007828;28;20198;-64
2022/07/26 05:51:18;;;;;;;1.10;1.00;;;22.40;99.90;;;;;;5004609;28;20216;-65
2022/07/26 05:53:45;;;;;;;0.55;0.55;;;22.20;99.90;;;;;;5005518;28;20313;-65
2022/07/26 05:56:12;;;;;;;0.77;0.77;;;22.10;99.90;;;;;;5008572;28;20225;-67
2022/07/26 05:58:40;;;;;;;1.58;0.80;;;22.00;99.90;;;;;;5008976;28;20197;-64
2022/07/26 06:01:07;;;;;;;0.68;0.68;;;21.90;99.90;;;;;;5005086;28;20241;-65
2022/07/26 06:03:34;;;;;;;0.75;0.75;;;21.90;99.90;;;;;;5004794;28;20236;-64
2022/07/26 06:06:01;;;;;;;0.90;0.90;;;22.00;99.90;;;;;;5010083;28;20240;-65
2022/07/26 06:08:28;;;;;;;0.98;0.88;;;22.00;99.90;;;;;;5008216;28;20201;-64
2022/07/26 06:10:55;;;;;;;1.25;0.90;;;21.90;99.90;;;;;;5006616;28;20300;-65
2022/07/26 06:13:22;;;;;;;0.82;0.80;;;21.90;99.90;;;;;;5013156;28;20221;-65
2022/07/26 06:15:51;;;;;;;0.80;0.80;;;21.90;99.90;;;;;;5008373;28;20234;-64
2022/07/26 06:18:18;;;;;;;0.80;0.80;;;21.90;99.90;;;;;;5008555;28;20305;-65
2022/07/26 06:20:47;;;;;;;0.75;0.70;;;21.90;99.90;;;;;;5008744;28;20720;-65
2022/07/26 06:23:14;;;;;;;0.80;0.80;;;21.90;99.90;;;;;;5009722;28;20300;-65
2022/07/26 06:25:41;;;;;;;0.70;0.70;;;21.80;99.90;;;;;;5012519;28;20284;-65
2022/07/26 06:28:10;;;;;;;0.93;0.85;;;22.00;99.90;;;;;;5007884;28;20243;-65
2022/07/26 06:30:38;;;;;;;0.70;0.70;;;22.20;99.90;;;;;;5007688;28;20754;-65
2022/07/26 06:33:08;;;;;;;0.70;0.70;;;22.30;99.90;;;;;;5016188;28;20304;-66
2022/07/26 06:35:37;;;;;;;0.68;0.68;;;22.40;99.90;;;;;;5012508;28;20569;-67
2022/07/26 06:38:05;;;;;;;0.95;0.95;;;22.60;99.90;;;;;;5010920;28;20572;-66
2022/07/26 06:40:33;;;;;;;1.33;0.70;;;22.60;99.90;;;;;;5012755;28;20232;-64
2022/07/26 06:42:59;;;;;;;0.82;0.82;;;22.70;99.90;;;;;;5027481;28;20236;-67
2022/07/26 06:45:27;;;;;;;0.70;0.70;;;22.60;99.90;;;;;;5031797;28;20201;-66
2022/07/26 06:47:54;;;;;;;0.93;0.70;;;22.70;99.90;;;;;;5027087;28;20205;-65
2022/07/26 06:50:22;;;;;;;1.52;0.85;;;22.80;99.90;;;;;;5017363;28;20236;-66
2022/07/26 06:52:49;;;;;;;0.70;0.70;;;22.80;99.90;;;;;;5013680;28;20309;-66
2022/07/26 06:55:16;;;;;;;0.85;0.85;;;22.80;99.90;;;;;;5002346;28;20313;-67
2022/07/26 06:57:43;;;;;;;0.70;0.70;;;22.80;99.90;;;;;;5003309;28;20285;-64
2022/07/26 07:00:11;;;;;;;0.70;0.70;;;23.00;99.90;;;;;;5005329;28;20205;-65
2022/07/26 07:02:38;;;;;;;0.70;0.70;;;23.10;99.90;;;;;;5012378;28;20221;-65
2022/07/26 07:05:06;;;;;;;0.80;0.80;;;23.30;99.90;;;;;;5012729;28;20221;-66
2022/07/26 07:07:36;;;;;;;0.90;0.90;;;23.30;99.90;;;;;;5014349;28;20261;-66
2022/07/26 07:10:03;;;;;;;0.75;0.75;;;23.20;99.90;;;;;;5013793;28;20228;-67
2022/07/26 07:12:30;;;;;;;0.75;0.75;;;23.40;99.90;;;;;;5008555;28;20316;-65
2022/07/26 07:14:57;;;;;;;0.70;0.70;;;23.40;99.90;;;;;;5007948;28;20312;-65
2022/07/26 07:17:24;;;;;;;0.63;0.63;;;23.10;99.90;;;;;;5012382;28;20236;-64
2022/07/26 07:19:51;;;;;;;0.57;0.57;;;22.90;99.90;;;;;;5020957;28;20213;-65
2022/07/26 07:22:18;;;;;;;0.77;0.77;;;22.80;99.90;;;;;;5011580;28;20226;-64
2022/07/26 07:24:46;;;;;;;0.80;0.80;;;23.10;99.90;;;;;;5004598;28;20641;-65
2022/07/26 07:27:13;;;;;;;0.90;0.90;;;23.40;99.90;;;;;;5008932;28;20202;-65
2022/07/26 07:29:40;;;;;;;0.68;0.68;;;23.60;99.90;;;;;;5006357;28;20370;-64
2022/07/26 07:32:07;;;;;;;0.80;0.70;;;23.90;99.90;;;;;;5015211;28;20224;-67
2022/07/26 07:34:34;;;;;;;0.80;0.80;;;24.10;99.90;;;;;;5014628;28;20288;-66
2022/07/26 07:37:01;;;;;;;1.00;0.90;;;24.00;99.90;;;;;;5013667;28;20201;-67
2022/07/26 07:39:28;;;;;;;0.60;0.60;;;24.00;99.90;;;;;;5019671;28;20259;-65
2022/07/26 07:41:56;;;;;;;0.60;0.60;;;24.00;99.90;;;;;;5007106;28;20292;-67
2022/07/26 07:44:23;;;;;;;0.75;0.75;;;24.30;99.90;;;;;;5009022;28;20236;-66
2022/07/26 07:46:50;;;;;;;0.75;0.75;;;24.60;99.90;;;;;;5008742;28;20466;-66
2022/07/26 07:49:17;;;;;;;0.70;0.70;;;24.90;99.90;;;;;;5013301;28;20288;-65
2022/07/26 07:51:44;;;;;;;0.68;0.68;;;25.10;99.90;;;;;;5015015;28;20260;-65
2022/07/26 07:54:10;;;;;;;0.80;0.80;;;25.20;99.90;;;;;;5010532;28;20345;-67
2022/07/26 07:56:37;;;;;;;0.73;0.73;;;25.40;99.90;;;;;;5016459;28;20778;-67
2022/07/26 07:59:05;;;;;;;0.60;0.60;;;25.60;99.90;;;;;;5005314;28;20255;-68
2022/07/26 08:01:32;;;;;;;0.85;0.85;;;25.60;99.90;;;;;;5016956;28;20676;-68
2022/07/26 08:03:59;;;;;;;0.80;0.80;;;25.30;99.90;;;;;;5009334;28;20264;-67
2022/07/26 08:06:26;;;;;;;0.70;0.70;;;24.80;99.90;;;;;;5011298;28;20201;-67
2022/07/26 08:08:53;;;;;;;0.70;0.70;;;24.60;99.90;;;;;;5010237;28;20627;-69
2022/07/26 08:11:20;;;;;;;0.47;0.47;;;24.30;99.90;;;;;;5003970;28;20749;-66
2022/07/26 08:13:47;;;;;;;0.70;0.70;;;24.00;99.90;;;;;;5014997;28;20217;-67
2022/07/26 08:16:15;;;;;;;0.60;0.60;;;23.80;99.90;;;;;;5017449;28;20241;-67
2022/07/26 08:18:42;;;;;;;0.57;0.57;;;23.80;99.90;;;;;;5026077;28;20220;-67
2022/07/26 08:21:09;;;;;;;1.35;0.65;;;23.80;99.90;;;;;;5009854;28;20293;-68
2022/07/26 08:23:35;;;;;;;0.75;0.73;;;23.80;99.90;;;;;;5011956;28;20239;-67
2022/07/26 08:26:02;;;;;;;0.70;0.70;;;24.10;99.90;;;;;;5010441;28;20197;-68
2022/07/26 08:28:29;;;;;;;0.90;0.90;;;24.20;99.90;;;;;;5017866;28;20212;-66
2022/07/26 08:30:56;;;;;;;0.55;0.55;;;24.20;99.90;;;;;;5016741;28;20293;-66
2022/07/26 08:33:24;;;;;;;0.70;0.70;;;24.10;99.90;;;;;;5005132;28;20221;-66
2022/07/26 08:35:51;;;;;;;0.60;0.60;;;24.00;99.90;;;;;;5012485;28;20234;-68
2022/07/26 08:38:18;;;;;;;3.10;0.88;;;24.30;99.90;;;;;;5014222;28;20576;-68
2022/07/26 08:40:45;;;;;;;0.70;0.70;;;24.60;99.90;;;;;;5008082;28;20288;-67
2022/07/26 08:43:12;;;;;;;0.73;0.73;;;24.70;99.90;;;;;;5015980;28;20259;-68
2022/07/26 08:45:39;;;;;;;0.73;0.73;;;25.00;99.90;;;;;;5010594;28;20367;-68
2022/07/26 08:48:06;;;;;;;0.60;0.60;;;25.00;99.90;;;;;;5008011;28;20197;-67
2022/07/26 08:50:35;;;;;;;0.80;0.80;;;25.00;99.90;;;;;;5015782;28;20296;-69
2022/07/26 08:53:07;;;;;;;0.70;0.70;;;24.70;99.90;;;;;;5011692;28;20312;-67
2022/07/26 08:55:35;;;;;;;0.68;0.68;;;24.60;99.90;;;;;;5007101;28;20257;-68
2022/07/26 08:58:03;;;;;;;0.50;0.50;;;24.80;99.90;;;;;;5010727;28;20275;-68
2022/07/26 09:00:31;;;;;;;0.95;0.70;;;24.80;99.90;;;;;;5013047;28;20297;-66
2022/07/26 09:02:59;;;;;;;0.60;0.60;;;25.10;99.90;;;;;;5011650;28;20280;-67
2022/07/26 09:05:31;;;;;;;0.60;0.60;;;25.30;99.90;;;;;;5033622;28;20212;-66
2022/07/26 09:08:00;;;;;;;0.70;0.70;;;25.20;99.90;;;;;;5027747;28;20268;-68
2022/07/26 09:10:27;;;;;;;0.70;0.70;;;25.20;99.90;;;;;;5007945;28;20280;-67
2022/07/26 09:12:56;;;;;;;0.80;0.80;;;25.30;99.90;;;;;;5014767;28;20719;-68
2022/07/26 09:15:24;;;;;;;0.68;0.68;;;25.40;99.90;;;;;;5010514;28;20215;-67
2022/07/26 09:17:52;;;;;;;0.68;0.68;;;25.80;99.90;;;;;;5012565;28;20727;-67
2022/07/26 09:20:22;;;;;;;0.70;0.70;;;25.80;99.90;;;;;;5009405;28;20304;-67
2022/07/26 09:23:05;;;;;;;0.73;0.73;;;25.70;99.90;;;;;;5011435;28;20229;-66
2022/07/26 09:25:33;;;;;;;0.70;0.70;;;25.40;99.90;;;;;;5014768;28;20208;-67
2022/07/26 09:28:01;;;;;;;0.95;0.90;;;25.50;99.90;;;;;;5009065;28;20211;-68
2022/07/26 09:30:29;;;;;;;0.68;0.68;;;25.30;99.90;;;;;;5015053;28;20236;-67
2022/07/26 09:33:02;;;;;;;1.55;0.80;;;25.10;99.90;;;;;;5014254;28;20311;-66
2022/07/26 09:35:30;;;;;;;1.38;1.27;;;25.20;99.90;;;;;;5011210;28;20232;-67
2022/07/26 09:37:57;;;;;;;0.65;0.65;;;25.00;99.90;;;;;;5020628;28;20204;-67
2022/07/26 09:40:33;;;;;;;0.60;0.60;;;25.00;99.90;;;;;;5010385;28;20206;-66
2022/07/26 09:43:02;;;;;;;0.73;0.73;;;25.30;99.90;;;;;;5018848;28;20242;-67
2022/07/26 09:45:31;;;;;;;0.90;0.90;;;25.50;99.90;;;;;;5009075;28;20747;-67
2022/07/26 09:47:58;;;;;;;0.68;0.68;;;25.70;99.90;;;;;;5003370;28;20205;-69
2022/07/26 09:50:26;;;;;;;0.75;0.75;;;25.80;99.90;;;;;;5013873;28;20208;-67
2022/07/26 09:53:07;;;;;;;1.75;0.85;;;26.00;99.90;;;;;;5007686;28;20680;-67
2022/07/26 09:55:37;;;;;;;0.68;0.68;;;25.70;99.90;;;;;;5013480;28;20255;-68
2022/07/26 09:58:05;;;;;;;0.70;0.70;;;25.60;99.90;;;;;;5010930;28;20656;-67
2022/07/26 10:00:32;;;;;;;1.23;0.88;;;25.60;99.90;;;;;;5013882;28;20622;-67
2022/07/26 10:03:00;;;;;;;0.70;0.70;;;25.70;99.90;;;;;;5006350;28;20340;-66
2022/07/26 10:05:27;;;;;;;0.52;0.52;;;25.60;99.90;;;;;;5019520;28;20208;-66
2022/07/26 10:07:57;;;;;;;0.68;0.68;;;25.40;99.90;;;;;;5009598;28;20301;-66
2022/07/26 10:10:29;;;;;;;0.63;0.63;;;25.50;99.90;;;;;;5015480;28;20201;-66
2022/07/26 10:12:58;;;;;;;0.90;0.80;;;25.50;99.90;;;;;;5014842;28;20312;-68
2022/07/26 10:15:40;;;;;;;0.50;0.50;;;26.00;99.90;;;;;;5014379;28;20201;-68
2022/07/26 10:18:08;;;;;;;0.70;0.70;;;26.70;99.90;;;;;;5018891;28;20256;-68
2022/07/26 10:20:40;;;;;;;0.50;0.47;;;26.50;99.90;;;;;;5010955;28;20632;-68
2022/07/26 10:23:38;;;;;;;1.23;0.80;;;26.10;99.90;;;;;;5012215;28;20252;-66
2022/07/26 10:26:07;;;;;;;1.48;0.80;;;26.00;99.90;;;;;;5011229;28;20194;-67
2022/07/26 10:28:37;;;;;;;0.70;0.70;;;26.10;99.90;;;;;;5031979;28;20258;-69
2022/07/26 10:31:36;;;;;;;0.70;0.70;;;26.00;99.90;;;;;;5023602;28;20236;-69
2022/07/26 10:34:03;;;;;;;0.68;0.68;;;26.10;99.90;;;;;;5017144;28;20260;-67
2022/07/26 10:36:36;;;;;;;0.47;0.47;;;26.20;99.90;;;;;;5011665;28;20221;-69
2022/07/26 10:39:08;;;;;;;0.40;0.40;;;26.10;99.90;;;;;;5015686;28;20203;-67
2022/07/26 10:41:41;;;;;;;0.47;0.47;;;26.10;99.90;;;;;;5005965;28;20256;-67
2022/07/26 10:44:18;;;;;;;0.50;0.50;;;26.00;99.90;;;;;;5022407;28;20244;-66
2022/07/26 10:47:02;;;;;;;0.57;0.57;;;26.10;99.90;;;;;;5009130;28;20281;-66
2022/07/26 10:49:32;;;;;;;0.45;0.45;;;26.50;99.90;;;;;;5018952;28;20280;-66
2022/07/26 10:52:15;;;;;;;0.80;0.80;;;26.50;99.90;;;;;;5021490;28;20236;-66
2022/07/26 10:55:08;;;;;;;0.65;0.65;;;26.30;99.90;;;;;;5009883;28;20197;-67
2022/07/26 10:57:37;;;;;;;0.40;0.40;;;26.00;99.90;;;;;;5004247;28;20229;-67
2022/07/26 11:00:10;;;;;;;0.63;0.63;;;25.80;99.90;;;;;;5019362;28;20292;-68
2022/07/26 11:02:38;;;;;;;0.50;0.50;;;26.20;99.90;;;;;;5008136;28;20300;-69
2022/07/26 11:05:11;;;;;;;0.75;0.75;;;26.40;99.90;;;;;;5010924;28;20252;-69
2022/07/26 11:07:52;;;;;;;0.50;0.50;;;26.60;99.90;;;;;;5005720;28;20189;-68
2022/07/26 11:10:24;;;;;;;0.45;0.45;;;26.90;99.90;;;;;;5006252;28;20412;-67
2022/07/26 11:13:05;;;;;;;0.52;0.50;;;27.20;99.90;;;;;;5010371;28;20294;-67
2022/07/26 11:15:35;;;;;;;0.90;0.55;;;27.50;99.90;;;;;;5007996;28;20287;-68
2022/07/26 11:18:10;;;;;;;0.40;0.40;;;27.50;99.90;;;;;;5002874;28;20221;-67
2022/07/26 11:20:38;;;;;;;0.70;0.70;;;27.30;99.90;;;;;;5007123;28;20260;-68
2022/07/26 11:23:20;;;;;;;0.55;0.55;;;27.30;99.90;;;;;;5010031;28;20324;-68
2022/07/26 11:26:02;;;;;;;0.65;0.65;;;27.60;99.90;;;;;;5012267;28;20300;-69
2022/07/26 11:28:30;;;;;;;0.75;0.75;;;27.90;99.90;;;;;;5018411;28;20300;-67
2022/07/26 11:30:59;;;;;;;2.17;0.77;;;27.70;99.90;;;;;;5010191;28;20237;-67
2022/07/26 11:33:36;;;;;;;0.70;0.70;;;27.10;99.90;;;;;;5012608;28;20307;-67
2022/07/26 11:36:03;;;;;;;0.50;0.50;;;26.70;99.90;;;;;;5008087;28;20653;-66
2022/07/26 11:38:44;;;;;;;0.60;0.60;;;26.50;99.90;;;;;;5012180;28;20304;-68
2022/07/26 11:41:13;;;;;;;0.57;0.57;;;26.30;99.90;;;;;;5003937;28;20197;-66
2022/07/26 11:43:42;;;;;;;1.75;0.70;;;26.60;99.90;;;;;;5012243;28;20634;-67
2022/07/26 11:46:10;;;;;;;0.60;0.60;;;26.50;99.90;;;;;;5003916;28;20262;-68
2022/07/26 11:48:38;;;;;;;0.63;0.63;;;26.30;99.90;;;;;;5011595;28;20284;-68
2022/07/26 11:51:10;;;;;;;0.60;0.60;;;26.50;99.90;;;;;;5013961;28;20255;-67
2022/07/26 11:53:37;;;;;;;0.50;0.50;;;27.00;99.90;;;;;;5009119;28;20225;-68
2022/07/26 11:56:15;;;;;;;0.50;0.50;;;27.00;99.90;;;;;;5011526;28;20202;-69
2022/07/26 11:58:42;;;;;;;0.75;0.75;;;27.10;99.90;;;;;;5008207;28;20233;-67
2022/07/26 12:01:13;;;;;;;0.50;0.50;;;27.30;99.90;;;;;;5011692;28;20231;-66
2022/07/26 12:03:42;;;;;;;1.58;0.77;;;27.40;99.90;;;;;;5011640;28;20329;-68
2022/07/26 12:06:11;;;;;;;0.40;0.40;;;27.70;99.90;;;;;;5024172;28;20232;-66
2022/07/26 12:08:42;;;;;;;0.60;0.60;;;27.60;99.90;;;;;;5027673;28;20205;-68
2022/07/26 12:11:09;;;;;;;0.70;0.70;;;27.30;99.90;;;;;;5029918;28;20244;-68
2022/07/26 12:13:55;;;;;;;1.00;0.85;;;27.60;99.90;;;;;;5023459;28;20311;-67
2022/07/26 12:16:37;;;;;;;0.60;0.60;;;27.90;99.90;;;;;;5014448;28;20308;-66
2022/07/26 12:19:06;;;;;;;0.47;0.47;;;28.00;99.90;;;;;;5014678;28;20237;-68
2022/07/26 12:21:44;;;;;;;0.60;0.60;;;27.90;99.90;;;;;;5011479;28;20722;-67
2022/07/26 12:24:13;;;;;;;0.50;0.50;;;27.40;99.90;;;;;;5016579;28;20719;-66
2022/07/26 12:26:40;;;;;;;0.50;0.50;;;27.50;99.90;;;;;;5019460;28;20225;-67
2022/07/26 12:32:01;;;;;;;1.60;0.80;;;28.30;99.90;;;;;;5040003;28;20204;-64
2022/07/26 12:34:28;;;;;;;0.52;0.52;;;28.20;99.90;;;;;;5046762;28;20200;-64
2022/07/26 12:37:05;;;;;;;0.60;0.60;;;27.90;99.90;;;;;;5042388;28;20231;-64
2022/07/26 12:39:31;;;;;;;0.55;0.55;;;28.00;99.90;;;;;;5038051;28;20220;-63
2022/07/26 12:41:58;;;;;;;0.63;0.63;;;28.40;99.90;;;;;;5046493;28;20578;-63
2022/07/26 12:44:25;;;;;;;0.50;0.50;;;28.20;99.90;;;;;;5049019;28;20614;-63
2022/07/26 12:46:53;;;;;;;0.50;0.50;;;28.30;99.90;;;;;;5044193;28;20201;-63
2022/07/26 12:49:20;;;;;;;0.60;0.60;;;28.50;99.90;;;;;;5046511;28;20207;-63
2022/07/26 12:51:47;;;;;;;0.45;0.45;;;28.30;99.90;;;;;;5044585;28;20220;-64
2022/07/26 12:54:14;;;;;;;0.75;0.75;;;28.60;99.90;;;;;;5046086;28;20237;-63
2022/07/26 12:56:41;;;;;;;0.70;0.70;;;28.50;99.90;;;;;;5046345;28;20234;-62
2022/07/26 12:59:09;;;;;;;0.40;0.40;;;28.70;99.90;;;;;;5045349;28;20676;-63
2022/07/26 13:01:36;;;;;;;0.82;0.60;;;28.90;99.90;;;;;;5045929;28;20295;-63
2022/07/26 13:04:04;;;;;;;0.50;0.50;;;28.70;99.90;;;;;;5043638;28;20663;-64